»·PEaware :: DCM2499 KSAN-L77

DCM2499 :: KSAN-L77

FLIGHT INFORMATION

Flight Status: Arrived
Operator:
DotCom
More flights by this operator :: More flights under this callsign
Pilot: Alec D. (17934)
Aircraft: BEECH AIRCRAFT SUPER KING AIR COMMUTER
(BE20)
More flights by this aircraft type
Origin: KSAN San Diego Intl-Lindbergh
United States
Destination: L77 Chiriaco Summit
United States
More flights between these airports :: More routes between these airports
Route: +PGY BROWS JLI V208 TRM
File this flight plan on PilotEdge
Remarks:
Altitude:
(Current/Filed)
9,000ft
Speed:
(Current/Filed)
260kts
Departed: 03-Jul-19 07:30 PM
Arrived: 03-Jul-19 08:05 PM
Distance/Time
Traveled:
93nm/0:34
Distance/Time
To Go:
Arrived

Flight Plot

Page will automatically refresh every two minutes.

Flight plan parsing failed; only flown route is shown


Map Options




Map Legend


Flown Route
Filed Route
Departure Airport
Arrival Airport
Navaid (VOR, NDB)
Fix

Horizontal Profiles

Position Reports

Time Latitude Longitude Heading Altitude Ground
Speed
03-Jul-19 19:09 32.732785 -117.178607 130 19ft 0kts
03-Jul-19 19:10 32.732785 -117.178607 130 19ft 0kts
03-Jul-19 19:11 32.732785 -117.178607 130 19ft 0kts
03-Jul-19 19:12 32.732785 -117.178607 130 19ft 0kts
03-Jul-19 19:13 32.732785 -117.178607 130 19ft 0kts
03-Jul-19 19:14 32.732785 -117.178607 130 19ft 0kts
03-Jul-19 19:15 32.732784 -117.178604 130 19ft 0kts
03-Jul-19 19:16 32.732779 -117.178598 130 19ft 0kts
03-Jul-19 19:17 32.732777 -117.178595 130 19ft 0kts
03-Jul-19 19:18 32.732775 -117.178593 130 19ft 0kts
03-Jul-19 19:19 32.732773 -117.178590 130 19ft 0kts
03-Jul-19 19:20 32.732771 -117.178587 130 19ft 0kts
03-Jul-19 19:21 32.732769 -117.178584 130 19ft 0kts
03-Jul-19 19:22 32.732767 -117.178582 130 19ft 0kts
03-Jul-19 19:23 32.732765 -117.178579 130 19ft 0kts
03-Jul-19 19:24 32.732763 -117.178576 130 19ft 0kts
03-Jul-19 19:25 32.732761 -117.178573 130 19ft 0kts
03-Jul-19 19:26 32.732695 -117.178483 132 19ft 7kts
03-Jul-19 19:27 32.731015 -117.175634 132 19ft 0kts
03-Jul-19 19:28 32.731013 -117.175631 132 19ft 0kts
03-Jul-19 19:29 32.730915 -117.178840 282 19ft 61kts
03-Jul-19 19:30 32.742136 -117.222347 286 1407ft 176kts
03-Jul-19 19:31 32.755544 -117.278585 261 3656ft 181kts
03-Jul-19 19:32 32.713100 -117.287630 128 5460ft 208kts
03-Jul-19 19:33 32.690290 -117.222855 109 7247ft 217kts
03-Jul-19 19:34 32.668643 -117.154421 111 8902ft 233kts
03-Jul-19 19:35 32.642655 -117.076062 111 9002ft 271kts
03-Jul-19 19:36 32.614290 -116.991116 111 8995ft 279kts
03-Jul-19 19:37 32.614672 -116.900275 78 8997ft 279kts
03-Jul-19 19:38 32.627030 -116.809077 80 9005ft 280kts
03-Jul-19 19:39 32.677917 -116.750759 15 8998ft 266kts
03-Jul-19 19:40 32.749464 -116.726272 12 8984ft 267kts
03-Jul-19 19:41 32.820587 -116.701495 13 8982ft 266kts
03-Jul-19 19:42 32.892056 -116.675868 13 8980ft 267kts
03-Jul-19 19:43 32.963576 -116.649846 13 8977ft 267kts
03-Jul-19 19:44 33.034334 -116.624199 13 8990ft 265kts
03-Jul-19 19:45 33.104902 -116.598752 13 8987ft 265kts
03-Jul-19 19:46 33.171226 -116.560338 32 8972ft 269kts
03-Jul-19 19:47 33.231518 -116.507115 33 8942ft 269kts
03-Jul-19 19:48 33.292667 -116.453612 33 8851ft 272kts
03-Jul-19 19:49 33.353676 -116.400651 33 8807ft 270kts
03-Jul-19 19:50 33.414763 -116.347473 33 8776ft 270kts
03-Jul-19 19:52 33.475725 -116.294047 34 8753ft 270kts
03-Jul-19 19:53 33.536396 -116.240612 33 8738ft 269kts
03-Jul-19 19:54 33.596735 -116.187712 33 8827ft 266kts
03-Jul-19 19:55 33.629765 -116.111200 78 7337ft 258kts
03-Jul-19 19:56 33.639119 -116.026502 84 5841ft 253kts
03-Jul-19 19:57 33.646165 -115.944266 84 4957ft 230kts
03-Jul-19 19:58 33.651905 -115.871029 85 4527ft 220kts
03-Jul-19 19:59 33.657582 -115.799808 85 3275ft 193kts
03-Jul-19 20:00 33.660863 -115.746329 96 3183ft 157kts
03-Jul-19 20:01 33.649794 -115.698690 107 3142ft 144kts
03-Jul-19 20:02 33.652123 -115.653698 70 2610ft 124kts
03-Jul-19 20:03 33.671703 -115.660009 271 2293ft 100kts
03-Jul-19 20:04 33.669383 -115.692959 256 1894ft 100kts
03-Jul-19 20:05 33.664243 -115.714976 253 1717ft 21kts
03-Jul-19 20:06 33.662967 -115.718475 166 1717ft 0kts
03-Jul-19 20:07 33.662283 -115.717979 162 1717ft 0kts
03-Jul-19 20:08 33.662281 -115.717979 162 1717ft 0kts

Navigation Log

Ident Type
Flight plan parsing failed, navigation log unavailable